sensor_id;sensor_type;location;lat;lon;timestamp;pressure;altitude;pressure_sealevel;temperature;humidity
15568;BME280;7885;42.596;23.044;2023-12-22T00:03:00;91461.75;;;2.43;94.00
15568;BME280;7885;42.596;23.044;2023-12-22T00:05:26;91444.88;;;2.39;94.15
15568;BME280;7885;42.596;23.044;2023-12-22T00:07:54;91455.66;;;2.49;94.05
15568;BME280;7885;42.596;23.044;2023-12-22T00:10:21;91426.50;;;2.41;94.01
15568;BME280;7885;42.596;23.044;2023-12-22T00:12:48;91444.94;;;2.64;93.53
15568;BME280;7885;42.596;23.044;2023-12-22T00:15:15;91364.72;;;2.23;93.27
15568;BME280;7885;42.596;23.044;2023-12-22T00:17:41;91435.38;;;2.77;92.84
15568;BME280;7885;42.596;23.044;2023-12-22T00:20:09;91368.59;;;2.43;92.81
15568;BME280;7885;42.596;23.044;2023-12-22T00:22:38;91421.16;;;2.80;92.85
15568;BME280;7885;42.596;23.044;2023-12-22T00:25:07;91414.28;;;2.86;92.14
15568;BME280;7885;42.596;23.044;2023-12-22T00:27:35;91402.75;;;2.78;92.51
15568;BME280;7885;42.596;23.044;2023-12-22T00:30:01;91404.69;;;2.78;92.03
15568;BME280;7885;42.596;23.044;2023-12-22T00:32:28;91371.28;;;2.58;92.38
15568;BME280;7885;42.596;23.044;2023-12-22T00:34:55;91390.09;;;3.00;92.88
15568;BME280;7885;42.596;23.044;2023-12-22T00:37:23;91407.38;;;2.95;91.81
15568;BME280;7885;42.596;23.044;2023-12-22T00:39:50;91409.66;;;2.90;91.14
15568;BME280;7885;42.596;23.044;2023-12-22T00:42:18;91409.66;;;2.69;91.12
15568;BME280;7885;42.596;23.044;2023-12-22T00:44:45;91403.50;;;2.61;91.87
15568;BME280;7885;42.596;23.044;2023-12-22T00:47:11;91397.38;;;2.61;92.03
15568;BME280;7885;42.596;23.044;2023-12-22T00:49:38;91401.97;;;2.64;92.29
15568;BME280;7885;42.596;23.044;2023-12-22T00:52:05;91401.63;;;2.69;92.23
15568;BME280;7885;42.596;23.044;2023-12-22T00:54:32;91399.66;;;2.73;92.57
15568;BME280;7885;42.596;23.044;2023-12-22T00:56:58;91393.94;;;2.78;92.60
15568;BME280;7885;42.596;23.044;2023-12-22T00:59:26;91375.91;;;2.75;92.95
15568;BME280;7885;42.596;23.044;2023-12-22T01:01:53;91369.75;;;2.71;92.07
15568;BME280;7885;42.596;23.044;2023-12-22T01:04:20;91388.16;;;2.93;92.55
15568;BME280;7885;42.596;23.044;2023-12-22T01:06:46;91394.31;;;2.94;92.43
15568;BME280;7885;42.596;23.044;2023-12-22T01:09:13;91410.06;;;2.99;92.11
15568;BME280;7885;42.596;23.044;2023-12-22T01:11:40;91390.84;;;3.00;91.76
15568;BME280;7885;42.596;23.044;2023-12-22T01:17:36;91398.91;;;2.83;92.75
15568;BME280;7885;42.596;23.044;2023-12-22T01:20:04;91396.63;;;2.81;93.49
15568;BME280;7885;42.596;23.044;2023-12-22T01:22:31;91370.53;;;2.61;93.27
15568;BME280;7885;42.596;23.044;2023-12-22T01:24:59;91405.06;;;2.83;93.17
15568;BME280;7885;42.596;23.044;2023-12-22T01:27:26;91385.09;;;2.81;93.42
15568;BME280;7885;42.596;23.044;2023-12-22T01:29:53;91374.00;;;2.82;93.61
15568;BME280;7885;42.596;23.044;2023-12-22T01:32:20;91335.63;;;2.61;94.05
15568;BME280;7885;42.596;23.044;2023-12-22T01:34:48;91272.31;;;2.24;94.84
15568;BME280;7885;42.596;23.044;2023-12-22T01:37:14;91378.19;;;2.90;94.66
15568;BME280;7885;42.596;23.044;2023-12-22T01:39:41;91359.78;;;2.99;94.37
15568;BME280;7885;42.596;23.044;2023-12-22T01:42:08;91347.50;;;3.02;93.84
15568;BME280;7885;42.596;23.044;2023-12-22T01:44:34;91348.28;;;2.99;94.05
15568;BME280;7885;42.596;23.044;2023-12-22T01:47:01;91288.41;;;2.70;93.66
15568;BME280;7885;42.596;23.044;2023-12-22T01:49:28;91359.00;;;3.13;93.14
15568;BME280;7885;42.596;23.044;2023-12-22T01:51:57;91356.69;;;3.15;93.15
15568;BME280;7885;42.596;23.044;2023-12-22T01:54:24;91308.34;;;2.80;93.28
15568;BME280;7885;42.596;23.044;2023-12-22T01:56:51;91359.78;;;3.03;93.58
15568;BME280;7885;42.596;23.044;2023-12-22T01:59:18;91358.63;;;2.97;94.02
15568;BME280;7885;42.596;23.044;2023-12-22T02:01:44;91298.38;;;2.55;94.00
15568;BME280;7885;42.596;23.044;2023-12-22T02:04:11;91359.38;;;3.01;94.12
15568;BME280;7885;42.596;23.044;2023-12-22T02:06:38;91363.63;;;3.05;94.41
15568;BME280;7885;42.596;23.044;2023-12-22T02:09:06;91319.09;;;2.73;94.77
15568;BME280;7885;42.596;23.044;2023-12-22T02:11:33;91373.59;;;3.16;94.04
15568;BME280;7885;42.596;23.044;2023-12-22T02:14:00;91362.81;;;3.26;93.42
15568;BME280;7885;42.596;23.044;2023-12-22T02:16:32;91359.78;;;3.14;93.25
15568;BME280;7885;42.596;23.044;2023-12-22T02:19:11;91360.53;;;3.03;94.01
15568;BME280;7885;42.596;23.044;2023-12-22T02:22:02;91355.94;;;3.04;95.68
15568;BME280;7885;42.596;23.044;2023-12-22T02:24:30;91295.72;;;2.70;94.39
15568;BME280;7885;42.596;23.044;2023-12-22T02:27:03;91316.03;;;2.92;94.16
15568;BME280;7885;42.596;23.044;2023-12-22T02:29:32;91351.28;;;3.29;93.89
15568;BME280;7885;42.596;23.044;2023-12-22T02:32:05;91316.00;;;3.10;93.69
15568;BME280;7885;42.596;23.044;2023-12-22T02:34:35;91335.94;;;3.33;94.17
15568;BME280;7885;42.596;23.044;2023-12-22T02:37:04;91326.75;;;3.20;93.87
15568;BME280;7885;42.596;23.044;2023-12-22T02:39:33;91330.94;;;3.28;93.88
15568;BME280;7885;42.596;23.044;2023-12-22T02:42:00;91345.88;;;3.47;93.36
15568;BME280;7885;42.596;23.044;2023-12-22T02:44:27;91243.13;;;2.86;93.14
15568;BME280;7885;42.596;23.044;2023-12-22T02:46:54;91286.78;;;3.29;92.45
15568;BME280;7885;42.596;23.044;2023-12-22T02:49:20;91325.47;;;3.60;91.83
15568;BME280;7885;42.596;23.044;2023-12-22T02:51:47;91319.66;;;3.76;89.36
15568;BME280;7885;42.596;23.044;2023-12-22T02:54:14;91284.28;;;3.77;89.45
15568;BME280;7885;42.596;23.044;2023-12-22T02:56:42;91308.72;;;4.11;88.75
15568;BME280;7885;42.596;23.044;2023-12-22T02:59:09;91279.44;;;4.20;88.01
15568;BME280;7885;42.596;23.044;2023-12-22T03:01:35;91294.19;;;4.56;87.52
15568;BME280;7885;42.596;23.044;2023-12-22T03:04:02;91294.13;;;4.67;87.64
15568;BME280;7885;42.596;23.044;2023-12-22T03:06:29;91281.09;;;4.58;87.43
15568;BME280;7885;42.596;23.044;2023-12-22T03:08:56;91239.03;;;4.24;87.75
15568;BME280;7885;42.596;23.044;2023-12-22T03:11:22;91270.06;;;4.42;87.31
15568;BME280;7885;42.596;23.044;2023-12-22T03:13:51;91257.88;;;4.24;88.08
15568;BME280;7885;42.596;23.044;2023-12-22T03:16:17;91298.50;;;4.47;88.02
15568;BME280;7885;42.596;23.044;2023-12-22T03:18:44;91254.47;;;4.16;88.01
15568;BME280;7885;42.596;23.044;2023-12-22T03:21:16;91275.50;;;4.35;88.26
15568;BME280;7885;42.596;23.044;2023-12-22T03:23:44;91290.81;;;4.42;88.44
15568;BME280;7885;42.596;23.044;2023-12-22T03:26:10;91296.25;;;4.38;90.07
15568;BME280;7885;42.596;23.044;2023-12-22T03:28:37;91287.84;;;4.29;89.80
15568;BME280;7885;42.596;23.044;2023-12-22T03:31:05;91292.41;;;4.36;89.21
15568;BME280;7885;42.596;23.044;2023-12-22T03:33:32;91293.50;;;4.45;89.16
15568;BME280;7885;42.596;23.044;2023-12-22T03:35:59;91283.00;;;4.62;88.09
15568;BME280;7885;42.596;23.044;2023-12-22T03:38:26;91280.34;;;4.58;88.33
15568;BME280;7885;42.596;23.044;2023-12-22T03:40:53;91279.88;;;4.67;88.50
15568;BME280;7885;42.596;23.044;2023-12-22T03:43:19;91279.44;;;4.75;88.13
15568;BME280;7885;42.596;23.044;2023-12-22T03:45:46;91255.63;;;4.67;87.65
15568;BME280;7885;42.596;23.044;2023-12-22T03:48:14;91263.59;;;4.81;87.55
15568;BME280;7885;42.596;23.044;2023-12-22T03:50:41;91278.06;;;4.97;87.34
15568;BME280;7885;42.596;23.044;2023-12-22T03:53:07;91280.38;;;4.99;86.55
15568;BME280;7885;42.596;23.044;2023-12-22T03:55:34;91284.16;;;5.05;87.07
15568;BME280;7885;42.596;23.044;2023-12-22T03:58:01;91270.41;;;4.96;86.72
15568;BME280;7885;42.596;23.044;2023-12-22T04:00:29;91284.91;;;5.09;86.46
15568;BME280;7885;42.596;23.044;2023-12-22T04:02:55;91261.19;;;4.90;87.64
15568;BME280;7885;42.596;23.044;2023-12-22T04:08:45;91280.97;;;5.17;85.42
15568;BME280;7885;42.596;23.044;2023-12-22T04:11:11;91281.59;;;5.32;84.15
15568;BME280;7885;42.596;23.044;2023-12-22T04:13:38;91259.06;;;5.12;86.51
15568;BME280;7885;42.596;23.044;2023-12-22T04:16:05;91292.72;;;5.37;84.97
15568;BME280;7885;42.596;23.044;2023-12-22T04:18:32;91279.22;;;5.37;84.72
15568;BME280;7885;42.596;23.044;2023-12-22T04:20:59;91290.25;;;5.50;85.03
15568;BME280;7885;42.596;23.044;2023-12-22T04:23:25;91296.69;;;5.59;84.98
15568;BME280;7885;42.596;23.044;2023-12-22T04:25:53;91295.63;;;5.53;87.01
15568;BME280;7885;42.596;23.044;2023-12-22T04:28:20;91293.66;;;5.57;87.12
15568;BME280;7885;42.596;23.044;2023-12-22T04:30:47;91230.03;;;5.26;87.65
15568;BME280;7885;42.596;23.044;2023-12-22T04:33:13;91293.56;;;5.65;87.08
15568;BME280;7885;42.596;23.044;2023-12-22T04:35:40;91288.94;;;5.65;88.17
15568;BME280;7885;42.596;23.044;2023-12-22T04:38:07;91267.56;;;5.47;87.98
15568;BME280;7885;42.596;23.044;2023-12-22T04:40:34;91278.63;;;5.56;89.47
15568;BME280;7885;42.596;23.044;2023-12-22T04:43:02;91291.97;;;5.71;89.31
15568;BME280;7885;42.596;23.044;2023-12-22T04:45:29;91285.06;;;5.66;90.62
15568;BME280;7885;42.596;23.044;2023-12-22T04:47:56;91270.59;;;5.49;92.21
15568;BME280;7885;42.596;23.044;2023-12-22T04:50:23;91284.38;;;5.58;93.12
15568;BME280;7885;42.596;23.044;2023-12-22T04:52:49;91289.13;;;5.47;94.73
15568;BME280;7885;42.596;23.044;2023-12-22T04:55:16;91279.59;;;5.39;96.17
15568;BME280;7885;42.596;23.044;2023-12-22T04:57:43;91276.13;;;5.39;97.15
15568;BME280;7885;42.596;23.044;2023-12-22T05:00:12;91272.91;;;5.17;98.75
15568;BME280;7885;42.596;23.044;2023-12-22T05:02:39;91281.69;;;5.21;99.14
15568;BME280;7885;42.596;23.044;2023-12-22T05:05:07;91277.56;;;5.13;100.00
15568;BME280;7885;42.596;23.044;2023-12-22T05:07:34;91212.88;;;4.72;100.00
15568;BME280;7885;42.596;23.044;2023-12-22T05:10:00;91275.63;;;5.14;100.00
15568;BME280;7885;42.596;23.044;2023-12-22T05:12:28;91282.50;;;5.18;100.00
15568;BME280;7885;42.596;23.044;2023-12-22T05:14:55;91271.72;;;5.18;100.00
15568;BME280;7885;42.596;23.044;2023-12-22T05:17:22;91280.88;;;5.24;100.00
15568;BME280;7885;42.596;23.044;2023-12-22T05:19:48;91254.03;;;5.17;100.00
15568;BME280;7885;42.596;23.044;2023-12-22T05:22:15;91278.84;;;5.35;100.00
15568;BME280;7885;42.596;23.044;2023-12-22T05:24:42;91273.41;;;5.39;100.00
15568;BME280;7885;42.596;23.044;2023-12-22T05:27:08;91271.13;;;5.37;100.00
15568;BME280;7885;42.596;23.044;2023-12-22T05:29:35;91191.84;;;4.94;100.00
15568;BME280;7885;42.596;23.044;2023-12-22T05:32:02;91258.28;;;5.48;100.00
15568;BME280;7885;42.596;23.044;2023-12-22T05:34:30;91266.75;;;5.50;100.00
15568;BME280;7885;42.596;23.044;2023-12-22T05:36:56;91271.66;;;5.59;100.00
15568;BME280;7885;42.596;23.044;2023-12-22T05:39:23;91239.03;;;5.46;100.00
15568;BME280;7885;42.596;23.044;2023-12-22T05:41:50;91261.72;;;5.52;100.00
15568;BME280;7885;42.596;23.044;2023-12-22T05:44:16;91224.13;;;5.35;100.00
15568;BME280;7885;42.596;23.044;2023-12-22T05:46:43;91277.50;;;5.54;100.00
15568;BME280;7885;42.596;23.044;2023-12-22T05:49:10;91261.31;;;5.54;100.00
15568;BME280;7885;42.596;23.044;2023-12-22T05:51:38;91268.38;;;5.44;100.00
15568;BME280;7885;42.596;23.044;2023-12-22T05:54:07;91245.00;;;5.31;100.00
15568;BME280;7885;42.596;23.044;2023-12-22T05:56:35;91200.97;;;5.03;100.00
15568;BME280;7885;42.596;23.044;2023-12-22T05:59:02;91237.66;;;5.31;100.00
15568;BME280;7885;42.596;23.044;2023-12-22T06:01:28;91203.19;;;5.16;100.00
15568;BME280;7885;42.596;23.044;2023-12-22T06:03:55;91272.78;;;5.62;100.00
15568;BME280;7885;42.596;23.044;2023-12-22T06:06:22;91237.84;;;5.17;100.00
15568;BME280;7885;42.596;23.044;2023-12-22T06:08:49;91270.84;;;5.28;100.00
15568;BME280;7885;42.596;23.044;2023-12-22T06:11:16;91237.94;;;5.06;100.00
15568;BME280;7885;42.596;23.044;2023-12-22T06:13:43;91242.56;;;5.06;100.00
15568;BME280;7885;42.596;23.044;2023-12-22T06:16:13;91257.94;;;5.09;100.00
15568;BME280;7885;42.596;23.044;2023-12-22T06:18:40;91264.56;;;5.01;100.00
15568;BME280;7885;42.596;23.044;2023-12-22T06:21:07;91272.63;;;5.04;100.00
15568;BME280;7885;42.596;23.044;2023-12-22T06:23:33;91267.75;;;4.89;100.00
15568;BME280;7885;42.596;23.044;2023-12-22T06:26:07;91285.78;;;4.99;100.00
15568;BME280;7885;42.596;23.044;2023-12-22T06:28:34;91282.28;;;5.02;100.00
15568;BME280;7885;42.596;23.044;2023-12-22T06:31:01;91274.53;;;5.04;100.00
15568;BME280;7885;42.596;23.044;2023-12-22T06:33:30;91231.97;;;4.88;100.00
15568;BME280;7885;42.596;23.044;2023-12-22T06:35:56;91269.44;;;5.17;100.00
15568;BME280;7885;42.596;23.044;2023-12-22T06:41:52;91275.97;;;5.16;100.00
15568;BME280;7885;42.596;23.044;2023-12-22T06:44:19;91278.59;;;5.23;100.00
15568;BME280;7885;42.596;23.044;2023-12-22T06:46:46;91281.50;;;5.39;100.00
15568;BME280;7885;42.596;23.044;2023-12-22T06:49:12;91284.28;;;5.32;100.00
15568;BME280;7885;42.596;23.044;2023-12-22T06:51:40;91285.97;;;5.52;100.00
15568;BME280;7885;42.596;23.044;2023-12-22T06:54:06;91251.63;;;5.23;100.00
15568;BME280;7885;42.596;23.044;2023-12-22T06:56:34;91253.41;;;4.99;100.00
15568;BME280;7885;42.596;23.044;2023-12-22T06:59:03;91240.19;;;5.12;100.00
15568;BME280;7885;42.596;23.044;2023-12-22T07:01:31;91282.94;;;5.50;100.00
15568;BME280;7885;42.596;23.044;2023-12-22T07:03:58;91266.81;;;5.43;100.00
15568;BME280;7885;42.596;23.044;2023-12-22T07:06:28;91284.66;;;5.68;100.00
15568;BME280;7885;42.596;23.044;2023-12-22T07:09:32;91291.06;;;5.81;100.00
15568;BME280;7885;42.596;23.044;2023-12-22T07:11:59;91297.19;;;5.85;100.00
15568;BME280;7885;42.596;23.044;2023-12-22T07:14:27;91299.47;;;5.90;100.00
15568;BME280;7885;42.596;23.044;2023-12-22T07:16:54;91299.41;;;5.93;100.00
15568;BME280;7885;42.596;23.044;2023-12-22T07:19:23;91303.97;;;6.00;100.00
15568;BME280;7885;42.596;23.044;2023-12-22T07:21:50;91205.94;;;5.42;100.00
15568;BME280;7885;42.596;23.044;2023-12-22T07:24:16;91302.31;;;6.09;100.00
15568;BME280;7885;42.596;23.044;2023-12-22T07:26:44;91308.38;;;6.17;100.00
15568;BME280;7885;42.596;23.044;2023-12-22T07:29:11;91315.69;;;6.20;100.00
15568;BME280;7885;42.596;23.044;2023-12-22T07:31:39;91291.19;;;6.04;100.00
15568;BME280;7885;42.596;23.044;2023-12-22T07:34:06;91309.19;;;6.14;100.00
15568;BME280;7885;42.596;23.044;2023-12-22T07:36:32;91324.69;;;6.10;100.00
15568;BME280;7885;42.596;23.044;2023-12-22T07:38:59;91327.88;;;6.01;100.00
15568;BME280;7885;42.596;23.044;2023-12-22T07:41:26;91322.47;;;6.01;100.00
15568;BME280;7885;42.596;23.044;2023-12-22T07:43:52;91321.34;;;5.99;100.00
15568;BME280;7885;42.596;23.044;2023-12-22T07:46:19;91324.91;;;5.92;100.00
15568;BME280;7885;42.596;23.044;2023-12-22T07:48:48;91318.72;;;5.92;100.00
15568;BME280;7885;42.596;23.044;2023-12-22T07:51:15;91330.25;;;5.96;100.00
15568;BME280;7885;42.596;23.044;2023-12-22T07:53:42;91330.56;;;6.01;100.00
15568;BME280;7885;42.596;23.044;2023-12-22T07:56:09;91288.19;;;5.65;100.00
15568;BME280;7885;42.596;23.044;2023-12-22T07:58:37;91336.81;;;5.95;100.00
15568;BME280;7885;42.596;23.044;2023-12-22T08:01:04;91321.22;;;5.76;100.00
15568;BME280;7885;42.596;23.044;2023-12-22T08:03:32;91316.59;;;5.73;100.00
15568;BME280;7885;42.596;23.044;2023-12-22T08:06:00;91330.28;;;5.92;100.00
15568;BME280;7885;42.596;23.044;2023-12-22T08:08:26;91324.19;;;5.85;100.00
15568;BME280;7885;42.596;23.044;2023-12-22T08:10:53;91325.03;;;5.78;100.00
15568;BME280;7885;42.596;23.044;2023-12-22T08:13:20;91362.28;;;5.94;100.00
15568;BME280;7885;42.596;23.044;2023-12-22T08:15:46;91353.50;;;5.83;100.00
15568;BME280;7885;42.596;23.044;2023-12-22T08:18:13;91345.81;;;5.81;100.00
15568;BME280;7885;42.596;23.044;2023-12-22T08:20:40;91361.69;;;5.76;100.00
15568;BME280;7885;42.596;23.044;2023-12-22T08:23:08;91344.13;;;5.60;100.00
15568;BME280;7885;42.596;23.044;2023-12-22T08:25:34;91341.53;;;5.50;100.00
15568;BME280;7885;42.596;23.044;2023-12-22T08:28:01;91350.63;;;5.63;100.00
15568;BME280;7885;42.596;23.044;2023-12-22T08:30:28;91362.47;;;5.73;100.00
15568;BME280;7885;42.596;23.044;2023-12-22T08:32:54;91372.03;;;5.81;100.00
15568;BME280;7885;42.596;23.044;2023-12-22T08:35:21;91355.09;;;5.77;100.00
15568;BME280;7885;42.596;23.044;2023-12-22T08:37:48;91350.31;;;5.95;100.00
15568;BME280;7885;42.596;23.044;2023-12-22T08:40:16;91365.59;;;6.08;100.00
15568;BME280;7885;42.596;23.044;2023-12-22T08:42:42;91371.22;;;6.21;100.00
15568;BME280;7885;42.596;23.044;2023-12-22T08:45:09;91359.88;;;6.33;100.00
15568;BME280;7885;42.596;23.044;2023-12-22T08:47:36;91366.72;;;6.41;100.00
15568;BME280;7885;42.596;23.044;2023-12-22T08:50:03;91365.91;;;6.44;100.00
15568;BME280;7885;42.596;23.044;2023-12-22T08:52:33;91362.75;;;6.49;100.00
15568;BME280;7885;42.596;23.044;2023-12-22T08:55:00;91354.91;;;6.58;100.00
15568;BME280;7885;42.596;23.044;2023-12-22T08:57:28;91364.06;;;6.68;100.00
15568;BME280;7885;42.596;23.044;2023-12-22T08:59:55;91359.31;;;6.76;100.00
15568;BME280;7885;42.596;23.044;2023-12-22T09:02:22;91351.50;;;6.81;100.00
15568;BME280;7885;42.596;23.044;2023-12-22T09:04:48;91382.50;;;7.00;100.00
15568;BME280;7885;42.596;23.044;2023-12-22T09:07:16;91384.31;;;7.10;100.00
15568;BME280;7885;42.596;23.044;2023-12-22T09:09:43;91372.41;;;7.04;100.00
15568;BME280;7885;42.596;23.044;2023-12-22T09:12:09;91386.44;;;7.22;100.00
15568;BME280;7885;42.596;23.044;2023-12-22T09:14:37;91387.84;;;7.30;100.00
15568;BME280;7885;42.596;23.044;2023-12-22T09:17:04;91381.63;;;7.33;100.00
15568;BME280;7885;42.596;23.044;2023-12-22T09:19:32;91358.53;;;7.25;100.00
15568;BME280;7885;42.596;23.044;2023-12-22T09:21:58;91382.22;;;7.44;100.00
15568;BME280;7885;42.596;23.044;2023-12-22T09:24:25;91371.50;;;7.37;100.00
15568;BME280;7885;42.596;23.044;2023-12-22T09:26:52;91300.63;;;6.99;100.00
15568;BME280;7885;42.596;23.044;2023-12-22T09:29:18;91345.44;;;7.24;100.00
15568;BME280;7885;42.596;23.044;2023-12-22T09:31:48;91383.56;;;7.56;100.00
15568;BME280;7885;42.596;23.044;2023-12-22T09:34:15;91387.38;;;7.58;100.00
15568;BME280;7885;42.596;23.044;2023-12-22T09:40:04;91360.19;;;7.42;100.00
15568;BME280;7885;42.596;23.044;2023-12-22T09:42:34;91372.78;;;7.52;100.00
15568;BME280;7885;42.596;23.044;2023-12-22T09:45:02;91378.31;;;7.45;100.00
15568;BME280;7885;42.596;23.044;2023-12-22T09:47:32;91361.84;;;7.13;100.00
15568;BME280;7885;42.596;23.044;2023-12-22T09:50:01;91361.06;;;7.13;100.00
15568;BME280;7885;42.596;23.044;2023-12-22T09:52:29;91357.00;;;7.24;100.00
15568;BME280;7885;42.596;23.044;2023-12-22T09:54:57;91362.69;;;7.33;100.00
15568;BME280;7885;42.596;23.044;2023-12-22T09:57:26;91357.84;;;7.44;100.00
15568;BME280;7885;42.596;23.044;2023-12-22T09:59:53;91354.53;;;7.56;100.00
15568;BME280;7885;42.596;23.044;2023-12-22T10:02:20;91366.09;;;7.60;100.00
15568;BME280;7885;42.596;23.044;2023-12-22T10:04:48;91378.78;;;7.63;100.00
15568;BME280;7885;42.596;23.044;2023-12-22T10:07:17;91372.53;;;7.67;100.00
15568;BME280;7885;42.596;23.044;2023-12-22T10:09:44;91372.91;;;7.69;100.00
15568;BME280;7885;42.596;23.044;2023-12-22T10:12:14;91367.50;;;7.69;100.00
15568;BME280;7885;42.596;23.044;2023-12-22T10:14:42;91363.31;;;7.64;100.00
15568;BME280;7885;42.596;23.044;2023-12-22T10:17:09;91362.53;;;7.63;100.00
15568;BME280;7885;42.596;23.044;2023-12-22T10:19:36;91361.31;;;7.68;100.00
15568;BME280;7885;42.596;23.044;2023-12-22T10:22:04;91346.88;;;7.75;100.00
15568;BME280;7885;42.596;23.044;2023-12-22T10:24:37;91340.19;;;7.79;100.00
15568;BME280;7885;42.596;23.044;2023-12-22T10:27:04;91342.03;;;7.86;100.00
15568;BME280;7885;42.596;23.044;2023-12-22T10:29:31;91333.09;;;7.89;100.00
15568;BME280;7885;42.596;23.044;2023-12-22T10:31:58;91316.69;;;7.96;100.00
15568;BME280;7885;42.596;23.044;2023-12-22T10:34:26;91315.34;;;8.04;100.00
15568;BME280;7885;42.596;23.044;2023-12-22T10:36:53;91320.34;;;8.25;100.00
15568;BME280;7885;42.596;23.044;2023-12-22T10:39:21;91312.75;;;8.56;100.00
15568;BME280;7885;42.596;23.044;2023-12-22T10:41:48;91328.78;;;9.02;100.00
15568;BME280;7885;42.596;23.044;2023-12-22T10:44:15;91253.91;;;8.89;99.33
15568;BME280;7885;42.596;23.044;2023-12-22T10:46:46;91325.19;;;9.70;97.89
15568;BME280;7885;42.596;23.044;2023-12-22T10:49:13;91314.19;;;9.90;96.67
15568;BME280;7885;42.596;23.044;2023-12-22T10:51:41;91280.84;;;9.73;95.08
15568;BME280;7885;42.596;23.044;2023-12-22T10:54:08;91314.34;;;9.99;94.98
15568;BME280;7885;42.596;23.044;2023-12-22T10:56:36;91304.44;;;9.92;94.50
15568;BME280;7885;42.596;23.044;2023-12-22T10:59:03;91314.53;;;9.92;94.51
15568;BME280;7885;42.596;23.044;2023-12-22T11:01:30;91308.31;;;9.91;94.06
15568;BME280;7885;42.596;23.044;2023-12-22T11:04:01;91312.75;;;9.85;94.02
15568;BME280;7885;42.596;23.044;2023-12-22T11:06:29;91285.31;;;9.96;94.44
15568;BME280;7885;42.596;23.044;2023-12-22T11:08:57;91298.94;;;10.37;93.89
15568;BME280;7885;42.596;23.044;2023-12-22T11:11:27;91284.50;;;10.53;91.65
15568;BME280;7885;42.596;23.044;2023-12-22T11:13:59;91274.25;;;10.03;90.30
15568;BME280;7885;42.596;23.044;2023-12-22T11:16:28;91273.56;;;9.99;91.25
15568;BME280;7885;42.596;23.044;2023-12-22T11:18:55;91220.34;;;9.73;92.09
15568;BME280;7885;42.596;23.044;2023-12-22T11:21:23;91262.97;;;10.17;92.29
15568;BME280;7885;42.596;23.044;2023-12-22T11:23:50;91258.78;;;10.29;91.31
15568;BME280;7885;42.596;23.044;2023-12-22T11:26:17;91252.63;;;10.41;90.40
15568;BME280;7885;42.596;23.044;2023-12-22T11:28:45;91284.28;;;10.60;90.61
15568;BME280;7885;42.596;23.044;2023-12-22T11:31:13;91287.84;;;10.44;90.62
15568;BME280;7885;42.596;23.044;2023-12-22T11:33:44;91294.69;;;10.36;90.50
15568;BME280;7885;42.596;23.044;2023-12-22T11:36:12;91283.41;;;10.09;90.18
15568;BME280;7885;42.596;23.044;2023-12-22T11:38:39;91280.47;;;9.58;89.90
15568;BME280;7885;42.596;23.044;2023-12-22T11:41:07;91308.47;;;9.55;91.53
15568;BME280;7885;42.596;23.044;2023-12-22T11:43:36;91290.03;;;9.34;93.11
15568;BME280;7885;42.596;23.044;2023-12-22T11:46:04;91307.81;;;9.35;92.42
15568;BME280;7885;42.596;23.044;2023-12-22T11:48:32;91324.81;;;9.23;92.85
15568;BME280;7885;42.596;23.044;2023-12-22T11:51:00;91324.78;;;9.07;94.42
15568;BME280;7885;42.596;23.044;2023-12-22T11:53:30;91330.97;;;9.07;96.42
15568;BME280;7885;42.596;23.044;2023-12-22T11:55:59;91334.22;;;9.02;96.16
15568;BME280;7885;42.596;23.044;2023-12-22T11:58:36;91340.56;;;8.96;96.89
15568;BME280;7885;42.596;23.044;2023-12-22T12:01:06;91335.94;;;8.77;97.87
15568;BME280;7885;42.596;23.044;2023-12-22T12:03:36;91337.28;;;8.69;98.93
15568;BME280;7885;42.596;23.044;2023-12-22T12:06:22;91341.25;;;8.64;99.96
15568;BME280;7885;42.596;23.044;2023-12-22T12:08:49;91343.28;;;8.60;99.60
15568;BME280;7885;42.596;23.044;2023-12-22T12:11:16;91362.34;;;8.56;99.61
15568;BME280;7885;42.596;23.044;2023-12-22T12:13:45;91341.22;;;8.28;100.00
15568;BME280;7885;42.596;23.044;2023-12-22T12:16:12;91358.19;;;8.32;100.00
15568;BME280;7885;42.596;23.044;2023-12-22T12:18:41;91306.91;;;8.02;100.00
15568;BME280;7885;42.596;23.044;2023-12-22T12:21:10;91338.09;;;8.30;100.00
15568;BME280;7885;42.596;23.044;2023-12-22T12:23:37;91337.69;;;8.31;100.00
15568;BME280;7885;42.596;23.044;2023-12-22T12:26:06;91323.56;;;8.20;100.00
15568;BME280;7885;42.596;23.044;2023-12-22T12:28:35;91324.50;;;8.33;100.00
15568;BME280;7885;42.596;23.044;2023-12-22T12:31:04;91298.84;;;7.98;100.00
15568;BME280;7885;42.596;23.044;2023-12-22T12:33:30;91238.34;;;7.46;100.00
15568;BME280;7885;42.596;23.044;2023-12-22T12:36:00;91249.50;;;7.28;100.00
15568;BME280;7885;42.596;23.044;2023-12-22T12:38:36;91275.25;;;7.36;100.00
15568;BME280;7885;42.596;23.044;2023-12-22T12:41:09;91254.59;;;7.03;100.00
15568;BME280;7885;42.596;23.044;2023-12-22T12:43:36;91248.34;;;7.06;100.00
15568;BME280;7885;42.596;23.044;2023-12-22T12:46:07;91248.25;;;7.13;100.00
15568;BME280;7885;42.596;23.044;2023-12-22T12:48:34;91252.44;;;7.14;100.00
15568;BME280;7885;42.596;23.044;2023-12-22T12:51:04;91251.53;;;7.01;100.00
15568;BME280;7885;42.596;23.044;2023-12-22T12:53:31;91283.91;;;7.04;100.00
15568;BME280;7885;42.596;23.044;2023-12-22T12:55:58;91306.31;;;7.05;100.00
15568;BME280;7885;42.596;23.044;2023-12-22T12:58:27;91298.31;;;6.98;100.00
15568;BME280;7885;42.596;23.044;2023-12-22T13:01:04;91308.69;;;7.03;100.00
15568;BME280;7885;42.596;23.044;2023-12-22T13:03:30;91298.56;;;7.07;100.00
15568;BME280;7885;42.596;23.044;2023-12-22T13:06:07;91305.38;;;7.15;100.00
15568;BME280;7885;42.596;23.044;2023-12-22T13:08:33;91279.97;;;7.09;100.00
15568;BME280;7885;42.596;23.044;2023-12-22T13:11:01;91262.47;;;6.94;100.00
15568;BME280;7885;42.596;23.044;2023-12-22T13:13:27;91315.91;;;7.33;100.00
15568;BME280;7885;42.596;23.044;2023-12-22T13:15:54;91336.00;;;7.32;100.00
15568;BME280;7885;42.596;23.044;2023-12-22T13:18:21;91350.25;;;7.36;100.00
15568;BME280;7885;42.596;23.044;2023-12-22T13:20:48;91286.44;;;6.92;100.00
15568;BME280;7885;42.596;23.044;2023-12-22T13:23:18;91350.91;;;7.43;100.00